Flight Track Log - Related Links

Times and Time Zones

All times are in EDT time to prevent confusion due to time zone crossing. See the AAL2345 flight status page for this flight to view local times or setup timezone preferences in your user account.

Time Position Orientation Groundspeed Altitude Reporting Facility
EDT Latitude Longitude Course Direction KTS MPH feet Rate Location/Type
Fri 06:40:39 PM 41.9167 -87.9333 194° South 186 214 3,300  Level Chicago TRACON
Fri 06:41:27 PM 41.8667 -87.9500 194° South 225 259 4,400 1,647 Climbing Chicago TRACON
Fri 06:42:00 PM 41.7020 -88.2371 201° Southwest  Level Estimated
Fri 06:42:21 PM 41.8167 -87.9625 191° South 237 273 6,100  Level Chicago Center
Fri 06:43:00 PM 41.6086 -88.3466 197° South  Level Estimated
Fri 06:43:23 PM 41.7275 -88.0122 203° Southwest 288 331 9,300  Level Chicago Center
Fri 06:44:00 PM 41.5151 -88.4558 207° Southwest  Level Estimated
Fri 06:44:26 PM 41.6500 -88.0556 203° Southwest 302 348 11,800  Level Chicago Center
Fri 06:45:00 PM 41.4214 -88.5647 194° South  Level Estimated
Fri 06:45:28 PM 41.5675 -88.0961 200° South 314 361 14,100  Level Chicago Center
Fri 06:46:00 PM 41.3318 -88.6685 194° South  Level Estimated
Fri 06:46:30 PM 41.4786 -88.1444 202° Southwest 350 403 15,200  Level Chicago Center
Fri 06:47:32 PM 41.3550 -88.2033 200° South 411 473 17,200 1,742 Climbing Chicago Center
Fri 06:48:34 PM 41.2425 -88.2539 199° South 431 496 18,800 1,597 Climbing Chicago Center
Fri 06:49:36 PM 41.1261 -88.3067 199° South 444 511 20,500 1,500 Climbing Chicago Center
Fri 06:50:38 PM 41.0039 -88.3622 199° South 462 532 21,900 1,548 Climbing Chicago Center
Fri 06:51:40 PM 40.8581 -88.4483 204° Southwest 485 558 23,700 1,584 Climbing Chicago Center
Fri 06:52:43 PM 40.7394 -88.5344 209° Southwest 490 564 25,200 1,403 Climbing Chicago Center
Fri 06:53:44 PM 40.6228 -88.6358 213° Southwest 502 578 26,600 1,366 Climbing Chicago Center
Fri 06:54:46 PM 40.5156 -88.7503 219° Southwest 504 580 28,000 1,113 Climbing Chicago Center
Fri 06:55:48 PM 40.4131 -88.8717 222° Southwest 507 583 28,900 1,152 Climbing Chicago Center
Fri 06:56:51 PM 40.2783 -89.0217 220° Southwest 521 600 30,400 1,248 Climbing Chicago Center
Fri 06:57:53 PM 40.1681 -89.1447 220° Southwest 522 601 31,500 1,100 Climbing Chicago Center
Fri 06:58:51 PM 40.0597 -89.2658 221° Southwest 515 593 32,600 950 Climbing Kansas City Center
Fri 06:59:53 PM 39.9517 -89.3872 221° Southwest 512 589 33,400 677 Climbing Kansas City Center
Fri 07:00:55 PM 39.8431 -89.5075 220° Southwest 510 587 34,000 290 Climbing Kansas City Center
Fri 07:01:57 PM 39.7342 -89.6297 221° Southwest 513 590 34,000  Level Kansas City Center
Fri 07:02:59 PM 39.6153 -89.7597 220° Southwest 507 583 34,000  Level Kansas City Center
Fri 07:04:01 PM 39.5083 -89.8767 220° Southwest 506 582 34,000  Level Kansas City Center
Fri 07:05:03 PM 39.4019 -89.9933 220° Southwest 504 580 34,000  Level Kansas City Center
Fri 07:06:05 PM 39.2961 -90.1106 221° Southwest 503 579 34,000  Level Kansas City Center
Fri 07:07:07 PM 39.1892 -90.2267 220° Southwest 504 580 34,000  Level Kansas City Center
Fri 07:08:10 PM 39.0608 -90.3672 220° Southwest 508 585 34,000  Level Kansas City Center
Fri 07:09:12 PM 38.9542 -90.4831 220° Southwest 507 583 34,000  Level Kansas City Center
Fri 07:10:14 PM 38.8558 -90.5886 220° Southwest 499 574 34,000  Level Kansas City Center
Fri 07:11:16 PM 38.7422 -90.7086 219° Southwest 508 585 34,000  Level Kansas City Center
Fri 07:12:18 PM 38.6336 -90.8236 220° Southwest 512 589 34,000  Level Kansas City Center
Fri 07:13:20 PM 38.5036 -90.9606 220° Southwest 513 590 34,000  Level Kansas City Center
Fri 07:14:22 PM 38.3961 -91.0728 219° Southwest 507 583 34,000  Level Kansas City Center
Fri 07:15:24 PM 38.2889 -91.1858 220° Southwest 505 581 34,000  Level Kansas City Center
Fri 07:16:26 PM 38.1808 -91.2958 219° Southwest 502 578 34,000  Level Kansas City Center
Fri 07:17:28 PM 38.0689 -91.4119 219° Southwest 503 579 34,000  Level Kansas City Center
Fri 07:18:30 PM 37.9603 -91.5239 219° Southwest 501 577 34,000  Level Kansas City Center
Fri 07:19:32 PM 37.8311 -91.6586 219° Southwest 498 573 34,000  Level Kansas City Center
Fri 07:20:34 PM 37.7214 -91.7706 219° Southwest 500 575 34,000  Level Kansas City Center
Fri 07:21:36 PM 37.6133 -91.8833 220° Southwest 500 575 34,000  Level Kansas City Center
Fri 07:22:38 PM 37.5047 -91.9931 219° Southwest 497 572 34,000  Level Kansas City Center
Fri 07:23:40 PM 37.4011 -92.1111 222° Southwest 496 571 34,000  Level Kansas City Center
Fri 07:24:42 PM 37.2969 -92.2250 221° Southwest 494 568 34,000  Level Kansas City Center
Fri 07:25:44 PM 37.1939 -92.3394 222° Southwest 492 566 34,000  Level Kansas City Center
Fri 07:26:46 PM 37.0903 -92.4547 222° Southwest 495 570 34,000  Level Kansas City Center
Fri 07:27:48 PM 36.9658 -92.5897 221° Southwest 492 566 34,000  Level Kansas City Center
Fri 07:28:50 PM 36.8625 -92.7017 221° Southwest 491 565 34,000  Level Kansas City Center
Fri 07:29:52 PM 36.7589 -92.8147 221° Southwest 492 566 34,000  Level Kansas City Center
Fri 07:30:54 PM 36.6553 -92.9253 221° Southwest 491 565 34,000  Level Kansas City Center
Fri 07:31:56 PM 36.5603 -93.0286 221° Southwest 491 565 34,000  Level Kansas City Center
Fri 07:32:58 PM 36.4378 -93.1608 221° Southwest 488 562 34,000  Level Kansas City Center
Fri 07:34:00 PM 36.3361 -93.2703 221° Southwest 487 560 34,000  Level Kansas City Center
Fri 07:34:38 PM 36.2731 -93.3406 222° Southwest 494 568 34,000  Level Memphis Center
Fri 07:35:38 PM 36.1747 -93.4450 221° Southwest 489 563 34,000  Level Memphis Center
Fri 07:36:38 PM 36.0697 -93.5592 221° Southwest 489 563 34,000  Level Memphis Center
Fri 07:37:38 PM 35.9667 -93.6653 220° Southwest 489 563 34,000 -100 Level Memphis Center
Fri 07:38:38 PM 35.8658 -93.7742 221° Southwest 489 563 33,800 -650 Descending Memphis Center
Fri 07:39:38 PM 35.7606 -93.8822 220° Southwest 494 568 32,700 -900 Descending Memphis Center
Fri 07:40:38 PM 35.6572 -93.9928 221° Southwest 494 568 32,000 -350 Descending Memphis Center
Fri 07:41:38 PM 35.5542 -94.0981 220° Southwest 494 568 32,000  Level Memphis Center
Fri 07:42:38 PM 35.4531 -94.2031 220° Southwest 487 560 32,000  Level Memphis Center
Fri 07:43:38 PM 35.3494 -94.3128 221° Southwest 493 567 32,000  Level Memphis Center
Fri 07:45:41 PM 35.1397 -94.5422 222° Southwest 479 551 32,000  Level Fort Worth Center
Fri 07:46:41 PM 35.0319 -94.6625 222° Southwest 486 559 32,000  Level Fort Worth Center
Fri 07:47:41 PM 34.9281 -94.7747 222° Southwest 486 559 32,000  Level Fort Worth Center
Fri 07:48:41 PM 34.8403 -94.8711 222° Southwest 474 545 32,000  Level Fort Worth Center
Fri 07:49:41 PM 34.7381 -94.9803 221° Southwest 484 557 32,000 -350 Level Fort Worth Center
Fri 07:50:41 PM 34.6381 -95.0864 221° Southwest 484 557 31,300 -900 Descending Fort Worth Center
Fri 07:51:41 PM 34.5356 -95.1950 221° Southwest 482 555 30,200 -1,200 Descending Fort Worth Center
Fri 07:52:41 PM 34.4353 -95.3011 221° Southwest 482 555 28,900 -1,300 Descending Fort Worth Center
Fri 07:53:41 PM 34.3306 -95.4092 220° Southwest 482 555 27,600 -1,250 Descending Fort Worth Center
Fri 07:54:41 PM 34.2281 -95.5169 221° Southwest 488 562 26,400 -1,300 Descending Fort Worth Center
Fri 07:55:41 PM 34.1108 -95.6375 220° Southwest 493 567 25,000 -1,200 Descending Fort Worth Center
Fri 07:56:41 PM 34.0244 -95.7294 221° Southwest 488 562 24,000 -1,400 Descending Fort Worth Center
Fri 07:57:41 PM 33.9214 -95.8367 221° Southwest 488 562 22,200 -2,100 Descending Fort Worth Center
Fri 07:58:41 PM 33.8142 -95.9486 221° Southwest 474 545 19,800 -2,450 Descending Fort Worth Center
Fri 07:59:41 PM 33.7297 -96.0372 221° Southwest 462 532 17,300 -2,950 Descending Fort Worth Center
Fri 08:00:41 PM 33.6347 -96.1361 221° Southwest 430 495 13,900 -2,250 Descending Fort Worth Center
Fri 08:01:41 PM 33.5603 -96.2119 220° Southwest 403 464 12,800 -950 Descending Fort Worth Center
Fri 08:02:41 PM 33.4881 -96.2950 224° Southwest 357 411 12,000 -900 Descending Fort Worth Center
Fri 08:03:41 PM 33.4322 -96.3606 224° Southwest 322 371 11,000 -800 Descending Fort Worth Center
Fri 08:04:41 PM 33.3661 -96.4383 225° Southwest 306 352 10,400 -950 Descending Fort Worth Center
Fri 08:05:41 PM 33.3164 -96.5011 227° Southwest 300 345 9,100 -1,500 Descending Fort Worth Center
Fri 08:06:49 PM 33.2500 -96.5833 226° Southwest 287 330 7,200 -1,623 Descending Dallas / Fort Worth TRACON
Fri 08:07:43 PM 33.2167 -96.6667 244° Southwest 282 325 5,800 -1,138 Descending Dallas / Fort Worth TRACON
Fri 08:08:45 PM 33.1833 -96.7500 244° Southwest 284 327 5,000 -407 Descending Dallas / Fort Worth TRACON
Fri 08:09:41 PM 33.1408 -96.8256 236° Southwest 283 326 5,000 -362 Level Fort Worth Center
Fri 08:10:41 PM 33.1036 -96.8953 238° Southwest 276 318 4,300 -1,068 Descending Fort Worth Center
Fri 08:11:39 PM 33.0667 -96.9833 243° Southwest 277 319 2,900 -878 Descending Dallas / Fort Worth TRACON
Fri 08:12:44 PM 33.0167 -97.0167 209° Southwest 191 220 2,500 -369 Descending Dallas / Fort Worth TRACON

Login

Don't have an account? Register now (free) for customized features, flight alerts, and more!